KMTJ

Montrose

Airport
ICAO code
KMTJ
Summary
ICAO Region
NAM
ICAO Territory
Location

Montrose, Colorado,

Coordinates
38° 30' 30" N , 107° 53' 44" W
KCC
Airport RE
Hot and High Operations
Metar
KMTJ 200653Z AUTO 00000KT 10SM FEW110 22/10 A3027 RMK AO2 SLP155 T02220100 403220161

Description

Montrose Regional Airport is a non-towered public airport located at the northwest edge of Montrose, Colorado.

Climatology

Cold Semi-arid climate (Köppen climate classification BSk). - Hot, sometimes extremely hot summers and cold, sometimes very cold winters. Some snowfall during the winter. Areas featuring cold semi-arid climates are sometimes subject to major temperature swings during a 24 hour period.

Runways

Designator Length Width Surface Rops
13/31 2286 30 ASP Yes/Yes
17/35 3048 46 ASP Yes/Yes

Airport map

Aerial View

Airport accidents

SKYbrary Partners:

Safety knowledge contributed by: